Time;durP1;ratioP1;P1;durP2;ratioP2;P2;SDS_P1;SDS_P2;PMS_P1;PMS_P2;Temp;Humidity;BMP_temperature;BMP_pressure;BME280_temperature;BME280_humidity;BME280_pressure;Samples;Min_cycle;Max_cycle;Signal;HPM_P1;HPM_P2
2022/01/23 00:01:42;;;;;;;5.55;2.72;;;;;;;1.86;100.00;100133.75;4186610;28;20037;-71
2022/01/23 00:03:46;;;;;;;4.95;3.00;;;;;;;1.90;100.00;100125.78;4185884;28;20056;-71
2022/01/23 00:05:51;;;;;;;4.20;2.90;;;;;;;1.86;100.00;100120.09;4186051;28;20307;-71
2022/01/23 00:07:52;;;;;;;4.72;3.00;;;;;;;1.82;100.00;100118.19;4185339;28;20079;-71
2022/01/23 00:09:52;;;;;;;4.25;2.88;;;;;;;1.82;100.00;100129.09;4186163;28;20087;-71
2022/01/23 00:11:54;;;;;;;4.35;3.08;;;;;;;1.79;100.00;100124.22;4186138;28;20449;-71
2022/01/23 00:18:17;;;;;;;4.18;2.88;;;;;;;1.79;100.00;100119.56;4184828;28;20321;-71
2022/01/23 00:20:17;;;;;;;5.50;2.70;;;;;;;1.77;100.00;100118.22;4186060;28;20028;-71
2022/01/23 00:22:20;;;;;;;5.47;3.15;;;;;;;1.79;100.00;100116.84;4185767;28;20504;-71
2022/01/23 00:31:16;;;;;;;4.03;2.80;;;;;;;1.76;100.00;100102.97;4185690;28;20198;-71
2022/01/23 00:33:18;;;;;;;3.83;2.85;;;;;;;1.73;100.00;100098.03;4185606;28;20075;-72
2022/01/23 00:35:18;;;;;;;3.58;2.85;;;;;;;1.75;100.00;100090.41;4185691;28;20507;-72
2022/01/23 00:37:19;;;;;;;4.85;3.40;;;;;;;1.75;100.00;100096.69;4184927;28;20057;-72
2022/01/23 00:39:19;;;;;;;3.97;3.08;;;;;;;1.77;100.00;100101.84;4186172;28;20535;-72
2022/01/23 00:41:20;;;;;;;4.45;3.20;;;;;;;1.78;100.00;100100.75;4185591;28;20431;-71
2022/01/23 00:43:29;;;;;;;4.55;3.30;;;;;;;1.77;100.00;100104.59;4185614;28;20044;-71
2022/01/23 00:45:33;;;;;;;4.55;2.92;;;;;;;1.80;100.00;100093.91;4185746;28;20269;-71
2022/01/23 00:47:34;;;;;;;4.55;3.10;;;;;;;1.82;100.00;100083.56;4184520;28;20040;-71
2022/01/23 00:49:34;;;;;;;5.47;3.30;;;;;;;1.85;100.00;100084.91;4186316;28;20489;-71
2022/01/23 00:51:37;;;;;;;5.43;3.58;;;;;;;1.83;100.00;100101.56;4185575;28;20045;-71
2022/01/23 00:53:37;;;;;;;4.47;3.20;;;;;;;1.93;100.00;100100.69;4185782;28;20040;-71
2022/01/23 00:55:39;;;;;;;4.55;3.20;;;;;;;1.91;100.00;100100.97;4185710;28;20499;-71
2022/01/23 00:57:39;;;;;;;4.43;3.10;;;;;;;1.91;100.00;100106.44;4184882;28;20036;-71
2022/01/23 00:59:39;;;;;;;4.28;3.15;;;;;;;1.85;100.00;100102.09;4185739;28;20047;-71
2022/01/23 01:01:40;;;;;;;4.72;2.97;;;;;;;1.92;100.00;100126.34;4185967;28;20097;-71
2022/01/23 01:03:41;;;;;;;4.68;2.95;;;;;;;1.86;100.00;100122.81;4188096;28;20484;-71
2022/01/23 01:05:41;;;;;;;6.45;2.70;;;;;;;1.94;100.00;100133.16;4189880;28;20110;-71
2022/01/23 01:07:41;;;;;;;4.07;3.15;;;;;;;1.90;100.00;100128.53;4187939;28;20170;-71
2022/01/23 01:09:48;;;;;;;4.32;2.97;;;;;;;1.93;100.00;100130.72;4188943;28;20151;-71
2022/01/23 01:12:06;;;;;;;4.25;3.00;;;;;;;1.93;100.00;100117.06;4188338;28;20052;-71
2022/01/23 01:16:39;;;;;;;3.85;2.85;;;;;;;1.92;100.00;100145.47;4187832;28;20501;-71
2022/01/23 01:32:35;;;;;;;3.33;2.58;;;;;;;1.96;100.00;100163.72;4188344;28;20028;-71
2022/01/23 01:34:41;;;;;;;3.92;2.78;;;;;;;1.95;100.00;100156.63;4189330;28;20815;-70
2022/01/23 01:36:51;;;;;;;3.15;2.20;;;;;;;2.03;100.00;100157.13;4188717;28;20049;-71
2022/01/23 01:38:52;;;;;;;4.43;2.58;;;;;;;2.02;100.00;100159.06;4188069;28;20045;-71
2022/01/23 01:40:53;;;;;;;4.38;2.63;;;;;;;2.06;100.00;100160.09;4187899;28;20098;-71
2022/01/23 01:42:53;;;;;;;3.17;2.35;;;;;;;2.01;100.00;100157.41;4188210;28;20048;-71
2022/01/23 01:44:53;;;;;;;4.85;2.60;;;;;;;2.03;100.00;100148.94;4187835;28;20400;-71
2022/01/23 01:46:54;;;;;;;3.67;2.42;;;;;;;2.02;100.00;100144.59;4187347;28;20535;-71
2022/01/23 01:48:55;;;;;;;3.70;2.78;;;;;;;2.06;100.00;100148.38;4188067;28;20056;-71
2022/01/23 01:50:56;;;;;;;4.85;2.20;;;;;;;2.04;100.00;100142.38;4187749;28;20072;-71
2022/01/23 01:52:57;;;;;;;3.40;2.50;;;;;;;1.97;100.00;100151.69;4187761;28;20118;-71
2022/01/23 01:55:04;;;;;;;3.20;2.13;;;;;;;1.97;100.00;100153.59;4187567;28;20048;-71
2022/01/23 01:57:07;;;;;;;2.58;1.90;;;;;;;1.94;100.00;100159.63;4186722;28;20041;-71
2022/01/23 01:59:17;;;;;;;5.25;2.40;;;;;;;1.97;100.00;100172.72;4187360;28;20052;-71
2022/01/23 02:08:23;;;;;;;2.55;1.83;;;;;;;2.09;100.00;100166.94;4186725;28;20101;-71
2022/01/23 02:10:24;;;;;;;2.45;1.67;;;;;;;2.12;100.00;100174.56;4187268;28;20528;-71
2022/01/23 02:15:09;;;;;;;2.55;1.70;;;;;;;2.11;100.00;100148.34;4187222;28;20055;-71
2022/01/23 02:56:32;;;;;;;3.85;2.90;;;;;;;1.97;100.00;100153.59;4186254;28;20121;-71
2022/01/23 02:58:47;;;;;;;4.20;2.92;;;;;;;1.93;100.00;100158.81;4185867;28;20197;-71
2022/01/23 03:01:06;;;;;;;3.28;2.35;;;;;;;1.89;100.00;100146.81;4186927;28;20419;-71
2022/01/23 03:03:13;;;;;;;3.42;2.80;;;;;;;1.89;100.00;100149.53;4186827;28;20041;-71
2022/01/23 03:05:24;;;;;;;4.22;2.42;;;;;;;1.90;100.00;100156.66;4186778;28;20129;-71
2022/01/23 03:26:11;;;;;;;3.85;2.50;;;;;;;1.81;100.00;100160.22;4185898;28;20051;-71
2022/01/23 03:32:40;;;;;;;3.95;2.50;;;;;;;1.85;100.00;100151.22;4186570;28;20038;-71
2022/01/23 03:34:40;;;;;;;3.28;2.50;;;;;;;1.83;100.00;100153.41;4186343;28;20047;-71
2022/01/23 03:36:40;;;;;;;3.80;2.55;;;;;;;1.81;100.00;100152.03;4185387;28;20040;-71
2022/01/23 03:38:42;;;;;;;3.55;2.75;;;;;;;1.83;100.00;100149.88;4186692;28;20282;-71
2022/01/23 03:40:42;;;;;;;5.32;3.20;;;;;;;1.80;100.00;100139.50;4186136;28;20392;-71
2022/01/23 03:42:44;;;;;;;5.13;3.05;;;;;;;1.80;100.00;100140.31;4186202;28;20516;-71
2022/01/23 03:45:03;;;;;;;5.28;3.28;;;;;;;1.82;100.00;100149.06;4186471;28;20416;-71
2022/01/23 03:47:31;;;;;;;6.13;3.95;;;;;;;1.84;100.00;100146.03;4185852;28;20123;-71
2022/01/23 03:49:32;;;;;;;5.35;3.30;;;;;;;1.85;100.00;100139.47;4186858;28;20044;-71
2022/01/23 03:51:32;;;;;;;5.53;3.63;;;;;;;1.83;100.00;100144.41;4186069;28;20037;-71
2022/01/23 03:53:33;;;;;;;5.80;3.67;;;;;;;1.83;100.00;100137.03;4184892;28;20091;-71
2022/01/23 03:55:34;;;;;;;5.75;3.58;;;;;;;1.84;100.00;100137.84;4186298;28;20291;-71
2022/01/23 03:57:34;;;;;;;6.57;3.50;;;;;;;1.85;100.00;100140.28;4185139;28;20048;-71
2022/01/23 03:59:36;;;;;;;5.20;3.53;;;;;;;1.82;100.00;100137.28;4185984;28;20045;-71
2022/01/23 04:01:37;;;;;;;6.75;3.92;;;;;;;1.82;100.00;100143.59;4185889;28;20052;-71
2022/01/23 04:03:39;;;;;;;6.25;4.00;;;;;;;1.83;100.00;100152.59;4186351;28;20504;-71
2022/01/23 04:05:39;;;;;;;5.75;3.50;;;;;;;1.83;100.00;100164.31;4185805;28;20059;-71
2022/01/23 04:07:40;;;;;;;6.35;3.95;;;;;;;1.83;100.00;100158.88;4185281;28;20560;-71
2022/01/23 04:09:41;;;;;;;6.50;3.75;;;;;;;1.88;100.00;100150.63;4185998;28;20054;-71
2022/01/23 04:11:41;;;;;;;5.90;3.85;;;;;;;1.95;100.00;100161.25;4186170;28;20048;-71
2022/01/23 04:13:55;;;;;;;6.00;3.47;;;;;;;1.89;100.00;100157.72;4185857;28;20128;-71
2022/01/23 04:32:04;;;;;;;7.18;4.15;;;;;;;1.95;100.00;100173.00;4185908;28;20055;-71
2022/01/23 04:45:30;;;;;;;8.35;3.90;;;;;;;1.97;100.00;100169.97;4189615;28;20554;-71
2022/01/23 05:01:35;;;;;;;7.18;4.80;;;;;;;1.86;100.00;100179.31;4188974;28;20075;-71
2022/01/23 05:06:00;;;;;;;7.68;4.03;;;;;;;1.78;100.00;100197.09;4189092;28;20106;-71
2022/01/23 05:08:04;;;;;;;7.15;4.07;;;;;;;1.75;100.00;100197.66;4187305;28;20059;-71
2022/01/23 05:10:05;;;;;;;10.00;5.25;;;;;;;1.71;100.00;100182.91;4188343;28;20051;-71
2022/01/23 05:12:08;;;;;;;6.65;4.55;;;;;;;1.69;100.00;100180.47;4188414;28;20087;-71
2022/01/23 05:14:09;;;;;;;10.13;4.80;;;;;;;1.68;100.00;100178.84;4188487;28;20272;-71
2022/01/23 05:16:11;;;;;;;7.47;4.20;;;;;;;1.68;100.00;100176.13;4188329;28;20619;-71
2022/01/23 05:18:11;;;;;;;7.95;4.03;;;;;;;1.64;100.00;100177.75;4187488;28;20472;-71
2022/01/23 05:20:14;;;;;;;8.82;4.50;;;;;;;1.62;100.00;100182.66;4188619;28;20032;-71
2022/01/23 05:24:30;;;;;;;6.72;3.58;;;;;;;1.60;100.00;100181.31;4188691;28;20040;-71
2022/01/23 05:26:31;;;;;;;8.13;4.40;;;;;;;1.59;100.00;100191.41;4188704;28;20052;-71
2022/01/23 05:28:31;;;;;;;6.75;4.25;;;;;;;1.59;100.00;100191.41;4188142;28;20060;-71
2022/01/23 05:30:32;;;;;;;7.68;4.78;;;;;;;1.56;100.00;100185.69;4188152;28;20048;-71
2022/01/23 05:32:36;;;;;;;9.05;4.93;;;;;;;1.60;100.00;100181.31;4187917;28;20551;-71
2022/01/23 05:34:37;;;;;;;10.85;5.75;;;;;;;1.60;100.00;100184.88;4188120;28;20055;-71
2022/01/23 05:36:37;;;;;;;7.82;4.80;;;;;;;1.59;100.00;100191.41;4187058;28;20044;-71
2022/01/23 05:38:37;;;;;;;9.20;4.90;;;;;;;1.54;100.00;100187.88;4187924;28;20532;-71
2022/01/23 05:40:39;;;;;;;7.30;4.68;;;;;;;1.53;100.00;100188.97;4187683;28;20044;-71
2022/01/23 05:42:40;;;;;;;8.15;4.85;;;;;;;1.50;100.00;100184.91;4188379;28;20131;-71
2022/01/23 05:44:41;;;;;;;8.07;4.55;;;;;;;1.54;100.00;100182.44;4187820;28;20080;-71
2022/01/23 05:46:42;;;;;;;8.52;4.35;;;;;;;1.57;100.00;100190.88;4187121;28;20102;-71
2022/01/23 05:48:42;;;;;;;5.95;4.00;;;;;;;1.62;100.00;100192.78;4187297;28;20504;-71
2022/01/23 05:50:44;;;;;;;6.95;4.18;;;;;;;1.59;100.00;100191.41;4188152;28;20044;-71
2022/01/23 05:52:44;;;;;;;8.30;4.22;;;;;;;1.52;100.00;100190.06;4187073;28;20040;-71
2022/01/23 05:54:44;;;;;;;6.82;4.20;;;;;;;1.50;100.00;100193.09;4187982;28;20050;-71
2022/01/23 05:56:46;;;;;;;7.28;4.10;;;;;;;1.51;100.00;100210.28;4187755;28;20059;-71
2022/01/23 05:58:47;;;;;;;6.38;3.92;;;;;;;1.50;100.00;100205.91;4187716;28;20045;-71
2022/01/23 06:00:47;;;;;;;6.93;4.07;;;;;;;1.48;100.00;100206.16;4187707;28;20075;-71
2022/01/23 06:02:47;;;;;;;7.82;4.07;;;;;;;1.44;100.00;100209.72;4187922;28;20059;-71
2022/01/23 06:04:48;;;;;;;6.80;4.50;;;;;;;1.47;100.00;100220.09;4187820;28;20152;-71
2022/01/23 06:06:48;;;;;;;8.05;4.30;;;;;;;1.49;100.00;100213.28;4186623;28;20139;-71
2022/01/23 06:08:49;;;;;;;10.50;4.30;;;;;;;1.53;100.00;100218.97;4187626;28;20075;-71
2022/01/23 06:10:58;;;;;;;6.60;4.10;;;;;;;1.48;100.00;100225.25;4187404;28;20625;-71
2022/01/23 06:12:59;;;;;;;6.80;4.15;;;;;;;1.44;100.00;100237.00;4186241;28;20048;-71
2022/01/23 06:14:59;;;;;;;8.02;4.45;;;;;;;1.39;100.00;100225.00;4187196;28;20132;-71
2022/01/23 06:16:59;;;;;;;8.40;4.85;;;;;;;1.46;100.00;100224.72;4185759;28;20464;-71
2022/01/23 06:19:00;;;;;;;8.82;4.80;;;;;;;1.47;100.00;100233.72;4186494;28;20502;-71
2022/01/23 06:21:00;;;;;;;6.28;3.90;;;;;;;1.47;100.00;100247.34;4186298;28;20089;-71
2022/01/23 06:23:01;;;;;;;7.35;4.72;;;;;;;1.43;100.00;100249.84;4186333;28;20424;-71
2022/01/23 06:25:04;;;;;;;7.90;4.05;;;;;;;1.41;100.00;100246.56;4185997;28;20072;-71
2022/01/23 06:27:05;;;;;;;7.35;4.18;;;;;;;1.44;100.00;100239.72;4186101;28;20482;-71
2022/01/23 06:29:06;;;;;;;8.82;4.78;;;;;;;1.46;100.00;100243.00;4186137;28;20052;-71
2022/01/23 06:31:08;;;;;;;8.48;4.90;;;;;;;1.44;100.00;100239.72;4186138;28;20517;-71
2022/01/23 06:33:08;;;;;;;7.47;3.80;;;;;;;1.42;100.00;100245.47;4185047;28;20045;-71
2022/01/23 06:35:09;;;;;;;8.27;4.72;;;;;;;1.40;100.00;100253.91;4185987;28;20049;-71
2022/01/23 06:37:09;;;;;;;7.80;4.10;;;;;;;1.37;100.00;100248.19;4184974;28;20048;-71
2022/01/23 06:39:11;;;;;;;9.98;5.20;;;;;;;1.39;100.00;100259.63;4185843;28;20544;-71
2022/01/23 06:41:11;;;;;;;10.13;3.78;;;;;;;1.37;100.00;100249.00;4186119;28;20076;-71
2022/01/23 06:43:11;;;;;;;5.90;4.03;;;;;;;1.37;100.00;100253.66;4186256;28;20047;-71
2022/01/23 06:45:12;;;;;;;7.78;4.22;;;;;;;1.36;100.00;100252.00;4185458;28;20513;-71
2022/01/23 06:47:12;;;;;;;6.85;4.60;;;;;;;1.36;100.00;100261.00;4185166;28;20042;-71
2022/01/23 06:49:13;;;;;;;9.27;6.05;;;;;;;1.37;100.00;100259.09;4186279;28;20044;-71
2022/01/23 06:51:13;;;;;;;13.18;6.72;;;;;;;1.35;100.00;100266.75;4185811;28;20147;-71
2022/01/23 06:53:13;;;;;;;17.65;7.60;;;;;;;1.30;100.00;100267.56;4185549;28;20543;-71
2022/01/23 06:55:17;;;;;;;11.32;6.22;;;;;;;1.30;100.00;100275.72;4185342;28;20337;-71
2022/01/23 06:57:17;;;;;;;9.10;4.93;;;;;;;1.28;100.00;100274.38;4184154;28;20063;-71
2022/01/23 06:59:17;;;;;;;7.95;4.85;;;;;;;1.30;100.00;100286.63;4184501;28;20071;-71
2022/01/23 07:01:18;;;;;;;7.72;4.35;;;;;;;1.29;100.00;100278.75;4185508;28;20532;-71
2022/01/23 07:03:18;;;;;;;8.38;5.05;;;;;;;1.29;100.00;100284.19;4186097;28;20040;-71
2022/01/23 07:05:18;;;;;;;8.75;4.70;;;;;;;1.34;100.00;100289.66;4185428;28;20047;-71
2022/01/23 07:07:19;;;;;;;9.40;4.97;;;;;;;1.32;100.00;100294.53;4184677;28;20511;-71
2022/01/23 07:09:19;;;;;;;8.48;5.25;;;;;;;1.31;100.00;100304.63;4185872;28;20048;-71
2022/01/23 07:11:19;;;;;;;7.80;4.63;;;;;;;1.34;100.00;100301.38;4185157;28;20049;-71
2022/01/23 07:13:20;;;;;;;8.25;5.45;;;;;;;1.35;100.00;100304.94;4184178;28;20048;-71
2022/01/23 07:15:21;;;;;;;9.07;5.72;;;;;;;1.36;100.00;100307.38;4185400;28;20055;-71
2022/01/23 07:17:21;;;;;;;13.65;7.40;;;;;;;1.35;100.00;100310.38;4184797;28;20039;-71
2022/01/23 07:19:22;;;;;;;14.32;7.25;;;;;;;1.36;100.00;100304.66;4184991;28;20072;-71
2022/01/23 07:21:22;;;;;;;9.95;6.35;;;;;;;1.40;100.00;100300.28;4185341;28;20540;-71
2022/01/23 07:23:23;;;;;;;9.90;6.07;;;;;;;1.39;100.00;100300.53;4185167;28;20147;-71
2022/01/23 07:25:23;;;;;;;13.15;6.30;;;;;;;1.43;100.00;100309.03;4185146;28;20044;-71
2022/01/23 07:27:24;;;;;;;8.30;5.05;;;;;;;1.40;100.00;100296.72;4184772;28;20047;-71
2022/01/23 07:29:24;;;;;;;13.10;6.43;;;;;;;1.45;100.00;100304.91;4185767;28;20132;-71
2022/01/23 07:33:51;;;;;;;13.27;6.93;;;;;;;1.51;100.00;100309.28;4162170;28;20416;-71
2022/01/23 07:35:51;;;;;;;9.98;5.70;;;;;;;1.59;100.00;100313.38;4185430;28;20041;-71
2022/01/23 07:37:51;;;;;;;11.23;5.63;;;;;;;1.59;100.00;100310.66;4184751;28;20052;-71
2022/01/23 07:39:52;;;;;;;8.50;5.38;;;;;;;1.58;100.00;100303.56;4168685;28;20497;-71
2022/01/23 07:41:53;;;;;;;8.93;5.10;;;;;;;1.63;100.00;100309.00;4183016;28;20116;-71
2022/01/23 07:43:54;;;;;;;9.60;4.80;;;;;;;1.61;100.00;100316.66;4185388;28;20041;-71
2022/01/23 07:45:54;;;;;;;11.38;5.10;;;;;;;1.60;100.00;100312.28;4185354;28;20036;-71
2022/01/23 07:47:55;;;;;;;10.18;5.40;;;;;;;1.64;100.00;100303.25;4184173;28;20043;-71
2022/01/23 07:49:55;;;;;;;9.35;5.28;;;;;;;1.67;100.00;100310.91;4184704;28;20040;-71
2022/01/23 07:51:57;;;;;;;9.75;6.10;;;;;;;1.67;100.00;100304.66;4184735;28;20400;-71
2022/01/23 07:53:57;;;;;;;9.85;5.45;;;;;;;1.69;100.00;100306.00;4184583;28;20044;-71
2022/01/23 07:55:57;;;;;;;8.50;4.75;;;;;;;1.69;100.00;100299.72;4184720;28;20140;-71
2022/01/23 07:58:05;;;;;;;10.23;5.07;;;;;;;1.72;100.00;100301.88;4183478;28;20129;-71
2022/01/23 08:00:08;;;;;;;5.90;3.88;;;;;;;1.69;100.00;100302.44;4184820;28;20063;-71
2022/01/23 08:02:08;;;;;;;8.25;5.03;;;;;;;1.75;100.00;100314.19;4183931;28;20062;-71
2022/01/23 08:04:09;;;;;;;8.68;4.80;;;;;;;1.71;100.00;100313.09;4185223;28;20029;-71
2022/01/23 08:06:12;;;;;;;7.88;4.47;;;;;;;1.73;100.00;100322.63;4185124;28;20029;-71
2022/01/23 08:08:12;;;;;;;9.45;4.47;;;;;;;1.74;100.00;100321.56;4184213;28;20468;-71
2022/01/23 08:10:14;;;;;;;8.45;4.32;;;;;;;1.72;100.00;100325.63;4185044;28;20032;-71
2022/01/23 08:12:14;;;;;;;8.02;4.10;;;;;;;1.78;100.00;100333.53;4187321;28;20025;-71
2022/01/23 08:14:14;;;;;;;17.15;7.97;;;;;;;1.77;100.00;100339.28;4189280;28;20107;-71
2022/01/23 08:16:15;;;;;;;48.50;16.85;;;;;;;1.78;100.00;100324.53;4189740;28;20028;-71
2022/01/23 08:18:15;;;;;;;54.60;22.15;;;;;;;1.81;100.00;100332.97;4187965;28;20322;-71
2022/01/23 08:20:15;;;;;;;16.52;9.32;;;;;;;1.85;100.00;100333.28;4188553;28;20392;-71
2022/01/23 08:22:16;;;;;;;13.93;9.18;;;;;;;1.81;100.00;100337.63;4190035;28;20024;-71
2022/01/23 08:24:16;;;;;;;8.80;6.03;;;;;;;1.85;100.00;100336.00;4188994;28;20468;-71
2022/01/23 08:26:16;;;;;;;11.73;6.85;;;;;;;1.84;100.00;100334.38;4191081;28;20173;-71
2022/01/23 08:28:17;;;;;;;12.57;6.63;;;;;;;1.88;100.00;100341.72;4188277;28;20448;-71
2022/01/23 08:30:17;;;;;;;11.18;5.35;;;;;;;1.92;100.00;100339.28;4189012;28;20481;-71
2022/01/23 08:32:18;;;;;;;8.98;4.95;;;;;;;1.95;100.00;100338.72;4188507;28;20042;-71
2022/01/23 08:34:18;;;;;;;7.28;4.90;;;;;;;1.90;100.00;100338.69;4188853;28;20140;-71
2022/01/23 08:36:18;;;;;;;8.95;5.05;;;;;;;1.86;100.00;100345.81;4186974;28;20102;-71
2022/01/23 08:38:19;;;;;;;7.25;4.25;;;;;;;1.92;100.00;100344.72;4189370;28;20252;-71
2022/01/23 08:40:35;;;;;;;8.05;4.05;;;;;;;1.92;100.00;100339.28;4188808;28;20064;-71
2022/01/23 08:42:35;;;;;;;12.02;7.70;;;;;;;1.93;100.00;100355.38;4189823;28;20476;-71
2022/01/23 08:44:36;;;;;;;14.65;8.07;;;;;;;1.97;100.00;100350.16;4188803;28;20055;-71
2022/01/23 08:46:36;;;;;;;14.43;8.73;;;;;;;1.96;100.00;100343.06;4187986;28;20118;-71
2022/01/23 08:48:36;;;;;;;15.25;8.02;;;;;;;2.07;100.00;100349.31;4189320;28;20648;-71
2022/01/23 08:50:37;;;;;;;16.45;7.13;;;;;;;2.04;100.00;100344.41;4189862;28;20427;-71
2022/01/23 08:52:37;;;;;;;25.23;12.05;;;;;;;2.11;100.00;100343.03;4188426;28;20345;-71
2022/01/23 08:54:38;;;;;;;46.72;19.73;;;;;;;2.20;100.00;100351.47;4188904;28;20040;-71
2022/01/23 08:56:38;;;;;;;16.17;9.48;;;;;;;2.24;100.00;100352.59;4187704;28;20504;-71
2022/01/23 08:58:39;;;;;;;40.40;19.83;;;;;;;2.27;100.00;100340.28;4188264;28;20553;-71
2022/01/23 09:00:40;;;;;;;11.73;8.90;;;;;;;2.26;100.00;100353.13;4188587;28;20048;-71
2022/01/23 09:02:40;;;;;;;9.52;6.22;;;;;;;2.22;100.00;100344.63;4188248;28;20048;-71
2022/01/23 09:04:42;;;;;;;9.75;5.05;;;;;;;2.22;100.00;100343.81;4188470;28;20094;-71
2022/01/23 09:06:46;;;;;;;7.18;4.30;;;;;;;2.27;100.00;100349.28;4187717;28;20471;-71
2022/01/23 09:08:47;;;;;;;7.82;4.47;;;;;;;2.31;100.00;100350.34;4188250;28;20048;-71
2022/01/23 09:10:56;;;;;;;5.65;3.65;;;;;;;2.32;100.00;100348.44;4188209;28;20480;-71
2022/01/23 09:15:07;;;;;;;6.68;4.07;;;;;;;2.41;100.00;100335.88;4188472;28;20489;-71
2022/01/23 09:17:09;;;;;;;7.25;3.65;;;;;;;2.51;100.00;100341.28;4187568;28;20040;-71
2022/01/23 09:19:11;;;;;;;5.00;3.38;;;;;;;2.56;100.00;100343.97;4188148;28;20377;-71
2022/01/23 09:21:12;;;;;;;7.22;4.15;;;;;;;2.62;100.00;100352.97;4188331;28;20544;-71
2022/01/23 09:23:12;;;;;;;6.15;3.67;;;;;;;2.62;100.00;100345.59;4187758;28;20080;-71
2022/01/23 09:25:12;;;;;;;5.00;3.13;;;;;;;2.66;100.00;100343.97;4188361;28;20049;-71
2022/01/23 09:27:19;;;;;;;9.70;6.03;;;;;;;2.75;100.00;100352.38;4187366;28;20175;-72
2022/01/23 09:29:31;;;;;;;7.43;4.60;;;;;;;2.77;100.00;100355.66;4188173;28;20538;-71
2022/01/23 09:31:44;;;;;;;35.28;12.77;;;;;;;2.74;100.00;100345.28;4187948;28;20143;-71
2022/01/23 09:33:44;;;;;;;11.20;5.97;;;;;;;2.75;100.00;100347.75;4188169;28;20055;-72
2022/01/23 09:35:45;;;;;;;12.20;7.97;;;;;;;2.81;100.00;100353.97;4188781;28;20465;-71
2022/01/23 09:37:46;;;;;;;30.42;13.57;;;;;;;2.83;100.00;100351.81;4188028;28;20057;-71
2022/01/23 09:39:51;;;;;;;43.85;18.20;;;;;;;2.81;100.00;100351.25;4188987;28;20056;-71
2022/01/23 09:42:06;;;;;;;37.70;17.08;;;;;;;2.90;100.00;100362.44;4187244;28;20044;-71
2022/01/23 09:44:07;;;;;;;18.17;11.50;;;;;;;2.90;99.99;100356.97;4186818;28;20052;-71
2022/01/23 09:46:08;;;;;;;15.10;9.45;;;;;;;2.90;99.95;100357.78;4188203;28;20032;-71
2022/01/23 09:48:09;;;;;;;8.93;6.03;;;;;;;2.87;100.00;100352.84;4187042;28;20090;-71
2022/01/23 09:50:11;;;;;;;5.68;3.55;;;;;;;2.90;100.00;100357.78;4187894;28;20595;-71
2022/01/23 09:52:14;;;;;;;15.90;14.30;;;;;;;2.87;100.00;100360.25;4187877;28;20279;-71
2022/01/23 09:54:15;;;;;;;;;;;;;;;2.93;100.00;100365.41;4188546;28;20199;-71
2022/01/23 09:56:17;;;;;;;13.15;5.75;;;;;;;2.93;100.00;100370.88;4188204;28;19954;-71
2022/01/23 09:58:18;;;;;;;7.10;4.17;;;;;;;2.79;99.36;100357.00;4186694;28;20564;-71
2022/01/23 10:00:27;;;;;;;6.10;3.42;;;;;;;3.00;98.30;100362.38;4187736;28;20542;-71
2022/01/23 10:02:28;;;;;;;10.65;5.25;;;;;;;2.98;98.17;100359.94;4187574;28;20036;-71
2022/01/23 10:04:29;;;;;;;7.32;3.47;;;;;;;3.04;97.52;100356.03;4187414;28;20039;-71
2022/01/23 10:06:30;;;;;;;7.03;4.40;;;;;;;3.08;97.30;100361.78;4187316;28;20052;-71
2022/01/23 10:08:31;;;;;;;7.50;4.40;;;;;;;2.99;98.51;100363.47;4187135;28;20060;-71
2022/01/23 10:10:36;;;;;;;8.90;3.58;;;;;;;2.96;98.46;100364.03;4187634;28;20511;-71
2022/01/23 10:12:42;;;;;;;4.20;2.88;;;;;;;2.93;98.25;100354.47;4187459;28;20049;-71
2022/01/23 10:14:43;;;;;;;5.00;3.17;;;;;;;2.98;98.29;100359.09;4187450;28;20060;-71
2022/01/23 10:16:44;;;;;;;4.72;2.88;;;;;;;3.01;98.67;100356.63;4186842;28;20485;-71
2022/01/23 10:18:45;;;;;;;4.53;2.90;;;;;;;2.88;99.52;100357.22;4187015;28;20396;-71
2022/01/23 10:20:46;;;;;;;9.25;3.25;;;;;;;2.94;99.41;100350.63;4187412;28;20056;-71
2022/01/23 10:22:50;;;;;;;5.57;3.05;;;;;;;2.94;99.17;100352.56;4187393;28;20044;-71
2022/01/23 10:24:51;;;;;;;8.77;3.88;;;;;;;2.97;97.76;100350.06;4187415;28;20044;-71
2022/01/23 10:26:56;;;;;;;5.63;3.00;;;;;;;2.95;98.10;100354.19;4185957;28;20507;-71
2022/01/23 10:29:17;;;;;;;5.35;3.17;;;;;;;3.01;97.60;100347.59;4186823;28;20331;-71
2022/01/23 10:31:17;;;;;;;4.35;3.33;;;;;;;3.02;98.97;100341.03;4187093;28;20514;-71
2022/01/23 10:33:28;;;;;;;5.22;2.72;;;;;;;3.03;98.88;100343.47;4185561;28;20124;-71
2022/01/23 10:35:29;;;;;;;7.88;5.70;;;;;;;3.02;98.85;100330.09;4181467;28;20048;-71
2022/01/23 10:37:41;;;;;;;11.88;6.82;;;;;;;3.04;98.78;100347.03;4187291;28;20127;-71
2022/01/23 10:39:45;;;;;;;7.73;5.73;;;;;;;3.09;97.42;100344.28;4187388;28;20392;-71
2022/01/23 10:41:47;;;;;;;5.20;3.53;;;;;;;3.14;96.54;100352.44;4184977;28;20047;-71
2022/01/23 10:46:55;;;;;;;7.63;4.60;;;;;;;3.16;94.54;100346.69;4183888;28;20043;-72
2022/01/23 10:48:55;;;;;;;7.05;4.30;;;;;;;3.23;95.82;100350.75;4183442;28;20041;-71
2022/01/23 10:51:14;;;;;;;7.20;3.72;;;;;;;3.23;94.38;100355.41;4184897;28;20185;-71
2022/01/23 10:53:15;;;;;;;9.10;6.00;;;;;;;3.26;93.60;100361.13;4183310;28;20485;-71
2022/01/23 10:55:22;;;;;;;14.98;7.32;;;;;;;3.28;94.68;100367.13;4185109;28;20542;-71
2022/01/23 10:57:23;;;;;;;7.85;3.70;;;;;;;3.22;94.70;100359.22;4183175;28;20091;-71
2022/01/23 10:59:24;;;;;;;6.75;4.03;;;;;;;3.35;94.09;100358.59;4186900;28;20876;-71
2022/01/23 11:01:24;;;;;;;12.90;6.57;;;;;;;3.47;92.47;100369.16;4186754;28;20590;-71
2022/01/23 11:03:26;;;;;;;9.63;4.65;;;;;;;3.46;92.49;100359.31;4186474;28;20658;-71
2022/01/23 11:05:34;;;;;;;7.85;4.82;;;;;;;3.48;93.80;100351.66;4186565;28;20053;-71
2022/01/23 11:07:39;;;;;;;8.40;4.72;;;;;;;3.53;94.12;100354.34;4184462;28;20044;-71
2022/01/23 11:09:41;;;;;;;8.57;4.82;;;;;;;3.62;92.78;100358.09;4186005;28;20052;-71
2022/01/23 11:11:48;;;;;;;6.18;3.90;;;;;;;3.66;91.64;100353.72;4186235;28;20048;-71
2022/01/23 11:19:02;;;;;;;3.47;2.58;;;;;;;3.77;92.24;100355.25;4186574;28;20452;-71
2022/01/23 11:21:18;;;;;;;2.42;1.85;;;;;;;3.75;88.75;100343.78;4186007;28;20053;-71
2022/01/23 11:23:27;;;;;;;1.55;1.35;;;;;;;3.65;87.47;100346.59;4187355;28;20090;-71
2022/01/23 11:25:27;;;;;;;2.90;1.77;;;;;;;3.63;87.74;100354.25;4187195;28;20123;-71
2022/01/23 11:27:37;;;;;;;2.50;1.58;;;;;;;3.61;88.32;100349.06;4185652;28;20095;-71
2022/01/23 11:29:55;;;;;;;1.88;1.27;;;;;;;3.58;86.69;100344.19;4185287;28;20044;-71
2022/01/23 11:31:56;;;;;;;2.13;1.27;;;;;;;3.56;87.71;100357.34;4186314;28;20079;-72
2022/01/23 11:33:57;;;;;;;2.28;1.70;;;;;;;3.66;87.78;100351.78;4186201;28;20047;-72
2022/01/23 11:35:58;;;;;;;1.88;1.70;;;;;;;3.69;87.51;100347.66;4186693;28;20044;-72
2022/01/23 11:37:59;;;;;;;2.97;2.13;;;;;;;3.69;90.64;100342.16;4185147;28;20055;-71
2022/01/23 11:40:07;;;;;;;4.80;3.70;;;;;;;3.76;89.97;100342.66;4185622;28;20293;-71
2022/01/23 11:54:34;;;;;;;6.22;3.00;;;;;;;3.86;91.66;100360.91;4185688;28;20515;-71
2022/01/23 11:56:42;;;;;;;3.70;3.00;;;;;;;3.79;90.74;100354.94;4185433;28;20055;-71
2022/01/23 11:58:44;;;;;;;3.58;2.40;;;;;;;3.84;90.43;100358.47;4186106;28;20102;-71
2022/01/23 12:00:44;;;;;;;2.75;1.90;;;;;;;3.86;91.57;100352.69;4186246;28;20688;-71
2022/01/23 12:03:10;;;;;;;3.83;2.13;;;;;;;3.90;90.53;100354.59;4186149;28;20041;-71
2022/01/23 12:05:15;;;;;;;4.30;2.47;;;;;;;3.93;91.57;100359.47;4185852;28;20307;-71
2022/01/23 12:07:20;;;;;;;2.95;1.92;;;;;;;3.94;92.04;100350.16;4184881;28;20052;-71
2022/01/23 12:09:21;;;;;;;3.33;2.00;;;;;;;3.95;91.06;100353.72;4185381;28;20321;-71
2022/01/23 12:11:39;;;;;;;1.88;1.50;;;;;;;3.98;90.33;100346.84;4185853;28;20078;-71
2022/01/23 12:18:12;;;;;;;1.88;1.58;;;;;;;3.91;90.48;100349.94;4185336;28;20528;-71
2022/01/23 12:20:32;;;;;;;1.70;1.30;;;;;;;3.89;89.60;100347.47;4185464;28;20024;-71
2022/01/23 12:22:39;;;;;;;1.55;1.30;;;;;;;3.79;90.98;100341.25;4185327;28;20360;-71
2022/01/23 12:24:48;;;;;;;2.85;1.67;;;;;;;3.78;90.84;100345.09;4184986;28;21092;-71
2022/01/23 12:26:51;;;;;;;3.60;1.40;;;;;;;3.74;92.11;100344.88;4184441;28;20080;-71
2022/01/23 12:28:51;;;;;;;5.43;2.00;;;;;;;3.75;92.86;100349.25;4185922;28;20086;-71